Terminal Aerodrome Forecast
Issued by NWS

Home | Current Version | Previous Version | Text Only | Print | Product List | Glossary On
Versions: 1 2 3 4 5 6 7 8 9 10 11 12
336
FTPA31 PHFO 301733
TAFHJH
TAF
PHJH 301733Z 3018/3118 08006KT P6SM FEW025
     FM302000 01012KT P6SM SCT025
     FM310500 04009KT P6SM VCSH SCT025 SCT040=

USA.gov is the U.S. government's official web portal to all federal, state and local government web resources and services.